Time;durP1;ratioP1;P1;durP2;ratioP2;P2;SDS_P1;SDS_P2;PMS_P1;PMS_P2;Temp;Humidity;BMP_temperature;BMP_pressure;BME280_temperature;BME280_humidity;BME280_pressure;Samples;Min_cycle;Max_cycle;Signal;HPM_P1;HPM_P2
2022/04/21 00:00:19;;;;;;;4.93;4.53;;;12.60;99.90;;;;;;5055816;28;20651;-83
2022/04/21 00:02:46;;;;;;;6.13;4.87;;;12.50;99.90;;;;;;5056063;28;20210;-84
2022/04/21 00:05:14;;;;;;;6.80;5.03;;;12.50;99.90;;;;;;5054081;28;20721;-83
2022/04/21 00:07:41;;;;;;;7.00;5.17;;;12.40;99.90;;;;;;5055893;28;20202;-83
2022/04/21 00:10:09;;;;;;;8.40;5.20;;;12.40;99.90;;;;;;5053970;28;20203;-83
2022/04/21 00:12:36;;;;;;;4.80;4.30;;;12.40;99.90;;;;;;5055614;28;20251;-83
2022/04/21 00:15:05;;;;;;;5.93;5.10;;;12.40;99.90;;;;;;5055255;28;20209;-84
2022/04/21 00:17:33;;;;;;;6.03;4.77;;;12.30;99.90;;;;;;5055567;28;20213;-84
2022/04/21 00:20:00;;;;;;;5.93;5.43;;;12.30;99.90;;;;;;5054619;28;20194;-83
2022/04/21 00:25:12;;;;;;;5.87;5.23;;;12.10;99.90;;;;;;5055787;28;20229;-82
2022/04/21 00:27:39;;;;;;;6.70;5.30;;;12.10;99.90;;;;;;5055056;28;20301;-82
2022/04/21 00:30:09;;;;;;;7.30;5.43;;;12.00;99.90;;;;;;5055424;28;20301;-82
2022/04/21 00:32:36;;;;;;;7.17;5.60;;;12.00;99.90;;;;;;5055738;28;20207;-83
2022/04/21 00:35:05;;;;;;;6.30;5.80;;;12.10;99.90;;;;;;5055326;28;20211;-83
2022/04/21 00:37:32;;;;;;;6.30;5.80;;;12.00;99.90;;;;;;5055596;28;20206;-83
2022/04/21 00:39:59;;;;;;;5.70;5.20;;;12.00;99.90;;;;;;5055242;28;20206;-83
2022/04/21 00:42:26;;;;;;;9.27;5.23;;;11.90;99.90;;;;;;5055591;28;20211;-83
2022/04/21 00:44:52;;;;;;;7.27;5.33;;;11.80;99.90;;;;;;5055135;28;20226;-83
2022/04/21 00:47:21;;;;;;;5.07;4.67;;;11.70;99.90;;;;;;5054007;28;20723;-83
2022/04/21 00:49:49;;;;;;;7.40;4.97;;;11.60;99.90;;;;;;5054417;28;20201;-83
2022/04/21 00:52:16;;;;;;;6.87;4.93;;;11.60;99.90;;;;;;5055406;28;20203;-83
2022/04/21 00:54:44;;;;;;;8.13;4.83;;;11.60;99.90;;;;;;5055138;28;20206;-84
2022/04/21 00:57:11;;;;;;;5.77;5.17;;;11.50;99.90;;;;;;5054671;28;20214;-83
2022/04/21 00:59:38;;;;;;;6.30;4.93;;;11.50;99.90;;;;;;5054573;28;20211;-83
2022/04/21 01:04:51;;;;;;;5.43;4.90;;;11.50;99.90;;;;;;5054766;28;20233;-82
2022/04/21 01:07:18;;;;;;;5.60;5.07;;;11.70;99.90;;;;;;5054516;28;20202;-83
2022/04/21 01:09:45;;;;;;;10.17;5.70;;;11.70;99.90;;;;;;5055067;28;20206;-83
2022/04/21 01:12:14;;;;;;;5.23;4.83;;;11.70;99.90;;;;;;5054912;28;20207;-83
2022/04/21 01:14:41;;;;;;;7.97;5.00;;;11.70;99.90;;;;;;5054506;28;20206;-83
2022/04/21 01:17:09;;;;;;;5.67;5.17;;;11.70;99.90;;;;;;5054679;28;20210;-83
2022/04/21 01:19:36;;;;;;;6.80;5.27;;;11.60;99.90;;;;;;5054554;28;20202;-83
2022/04/21 01:22:04;;;;;;;7.20;5.60;;;11.60;99.90;;;;;;5054591;28;20232;-84
2022/04/21 01:24:31;;;;;;;7.47;5.90;;;11.60;99.90;;;;;;5054587;28;20565;-84
2022/04/21 01:26:58;;;;;;;6.13;5.63;;;11.50;99.90;;;;;;5054705;28;20669;-81
2022/04/21 01:29:27;;;;;;;7.80;6.37;;;11.60;99.90;;;;;;5054213;28;20658;-83
2022/04/21 01:31:54;;;;;;;5.97;5.03;;;11.50;99.90;;;;;;5053842;28;20260;-83
2022/04/21 01:34:21;;;;;;;8.03;5.23;;;11.40;99.90;;;;;;5053832;28;20209;-84
2022/04/21 01:42:14;;;;;;;6.17;5.63;;;11.30;99.90;;;;;;5054134;28;20292;-84
2022/04/21 01:44:43;;;;;;;8.37;6.30;;;11.40;99.90;;;;;;5054264;28;20270;-84
2022/04/21 01:47:11;;;;;;;7.03;6.33;;;11.50;99.90;;;;;;5053958;28;20206;-83
2022/04/21 01:49:38;;;;;;;9.27;6.40;;;11.40;99.90;;;;;;5053758;28;20259;-83
2022/04/21 01:52:05;;;;;;;7.60;5.97;;;11.40;99.90;;;;;;5054365;28;20610;-83
2022/04/21 01:54:33;;;;;;;7.07;5.70;;;11.30;99.90;;;;;;5053901;28;20783;-83
2022/04/21 01:57:00;;;;;;;8.50;5.90;;;11.30;99.90;;;;;;5053643;28;20202;-84
2022/04/21 01:59:27;;;;;;;8.52;6.70;;;11.10;99.90;;;;;;5051941;28;20433;-83
2022/04/21 02:01:54;;;;;;;9.20;5.50;;;11.20;99.90;;;;;;5053530;28;20230;-83
2022/04/21 02:04:20;;;;;;;7.90;5.90;;;11.30;99.90;;;;;;5053789;28;20230;-84
2022/04/21 02:06:47;;;;;;;7.30;4.83;;;11.30;99.90;;;;;;5053775;28;20217;-83
2022/04/21 02:09:15;;;;;;;6.83;6.10;;;11.20;99.90;;;;;;5053486;28;20203;-82
2022/04/21 02:11:43;;;;;;;6.73;6.00;;;11.20;99.90;;;;;;5053520;28;20199;-84
2022/04/21 02:14:10;;;;;;;10.43;5.60;;;11.20;99.90;;;;;;5053550;28;20214;-83
2022/04/21 02:16:36;;;;;;;5.67;5.23;;;11.10;99.90;;;;;;5052669;28;20255;-83
2022/04/21 02:19:03;;;;;;;8.63;5.80;;;11.10;99.90;;;;;;5053434;28;20202;-84
2022/04/21 02:21:30;;;;;;;7.97;5.93;;;11.00;99.90;;;;;;5053441;28;20226;-83
2022/04/21 02:23:57;;;;;;;9.77;7.18;;;11.00;99.90;;;;;;5052433;28;20444;-84
2022/04/21 02:26:23;;;;;;;8.40;6.10;;;10.90;99.90;;;;;;5053224;28;20234;-84
2022/04/21 02:28:51;;;;;;;6.67;6.03;;;10.80;99.90;;;;;;5053217;28;20209;-84
2022/04/21 02:31:18;;;;;;;5.60;5.20;;;10.80;99.90;;;;;;5053247;28;20210;-84
2022/04/21 02:33:45;;;;;;;6.63;5.93;;;11.00;99.90;;;;;;5053598;28;20209;-84
2022/04/21 02:36:12;;;;;;;7.50;5.77;;;11.00;99.90;;;;;;5053285;28;20665;-84
2022/04/21 02:38:39;;;;;;;10.90;5.70;;;11.00;99.90;;;;;;5053038;28;20206;-83
2022/04/21 02:41:06;;;;;;;6.50;5.50;;;10.90;99.90;;;;;;5053304;28;20559;-84
2022/04/21 02:43:33;;;;;;;7.03;5.83;;;10.90;99.90;;;;;;5052950;28;20667;-83
2022/04/21 02:46:02;;;;;;;9.40;5.87;;;10.80;99.90;;;;;;5053071;28;20234;-83
2022/04/21 02:48:30;;;;;;;8.38;7.00;;;10.70;99.90;;;;;;5051701;28;20425;-84
2022/04/21 02:50:57;;;;;;;6.60;6.00;;;10.70;99.90;;;;;;5052958;28;20198;-83
2022/04/21 02:58:49;;;;;;;8.53;6.33;;;10.60;99.90;;;;;;5052736;28;20214;-84
2022/04/21 03:01:18;;;;;;;8.13;6.10;;;10.70;99.90;;;;;;5052903;28;20284;-84
2022/04/21 03:03:44;;;;;;;6.87;5.80;;;10.50;99.90;;;;;;5052713;28;20588;-84
2022/04/21 03:06:12;;;;;;;7.37;5.77;;;10.60;99.90;;;;;;5052847;28;20241;-84
2022/04/21 03:08:39;;;;;;;9.60;5.70;;;10.60;99.90;;;;;;5051324;28;20238;-84
2022/04/21 03:11:06;;;;;;;7.77;5.60;;;10.50;99.90;;;;;;5052857;28;20213;-83
2022/04/21 03:13:33;;;;;;;7.80;5.70;;;10.50;99.90;;;;;;5052795;28;20202;-84
2022/04/21 03:16:00;;;;;;;7.50;5.30;;;10.40;99.90;;;;;;5052710;28;20213;-83
2022/04/21 03:18:28;;;;;;;7.43;6.73;;;10.40;99.90;;;;;;5052758;28;20357;-84
2022/04/21 03:26:23;;;;;;;8.77;6.63;;;10.10;99.90;;;;;;5056824;28;20233;-84
2022/04/21 03:28:50;;;;;;;12.07;5.93;;;10.20;99.90;;;;;;5056388;28;20221;-84
2022/04/21 03:31:17;;;;;;;6.93;5.83;;;10.20;99.90;;;;;;5056897;28;20293;-84
2022/04/21 03:33:46;;;;;;;6.83;6.07;;;10.20;99.90;;;;;;5056730;28;20649;-84
2022/04/21 03:36:13;;;;;;;6.50;6.00;;;10.20;99.90;;;;;;5056858;28;20217;-84
2022/04/21 03:38:40;;;;;;;6.60;5.93;;;10.20;99.90;;;;;;5056801;28;20599;-83
2022/04/21 03:41:07;;;;;;;6.70;6.00;;;10.00;99.90;;;;;;5056617;28;20187;-83
2022/04/21 03:43:34;;;;;;;7.50;6.33;;;10.10;99.90;;;;;;5055164;28;20672;-84
2022/04/21 03:46:01;;;;;;;7.47;6.77;;;10.20;99.90;;;;;;5056390;28;20276;-84
2022/04/21 03:48:27;;;;;;;6.90;6.07;;;10.20;99.90;;;;;;5056263;28;20646;-84
2022/04/21 03:50:56;;;;;;;8.77;5.93;;;10.20;99.90;;;;;;5056410;28;20230;-83
2022/04/21 03:53:23;;;;;;;6.43;5.83;;;10.20;99.90;;;;;;5056580;28;20213;-83
2022/04/21 03:55:50;;;;;;;7.03;6.30;;;10.20;99.90;;;;;;5056789;28;20571;-83
2022/04/21 03:58:17;;;;;;;7.40;6.07;;;9.80;99.90;;;;;;5055890;28;20248;-84
2022/04/21 04:00:44;;;;;;;7.60;6.60;;;9.70;99.90;;;;;;5055942;28;20201;-83
2022/04/21 04:03:10;;;;;;;8.53;6.63;;;9.80;99.90;;;;;;5056111;28;20229;-84
2022/04/21 04:05:38;;;;;;;7.00;6.20;;;9.90;99.90;;;;;;5055380;28;20226;-83
2022/04/21 04:10:52;;;;;;;8.23;6.53;;;9.80;99.90;;;;;;5055855;28;20209;-83
2022/04/21 04:13:19;;;;;;;7.33;6.03;;;9.60;99.90;;;;;;5055756;28;20199;-84
2022/04/21 04:15:48;;;;;;;8.33;6.20;;;9.70;99.90;;;;;;5055770;28;20654;-84
2022/04/21 04:18:15;;;;;;;6.50;5.90;;;9.80;99.90;;;;;;5055968;28;20256;-83
2022/04/21 04:20:43;;;;;;;6.40;5.80;;;9.80;99.90;;;;;;5055867;28;20214;-84
2022/04/21 04:23:11;;;;;;;6.80;6.20;;;9.80;99.90;;;;;;5055834;28;20236;-84
2022/04/21 04:25:38;;;;;;;8.25;6.88;;;9.90;99.90;;;;;;5055233;28;20456;-84
2022/04/21 04:28:05;;;;;;;10.57;7.17;;;9.80;99.90;;;;;;5055515;28;20233;-84
2022/04/21 04:30:32;;;;;;;6.30;5.73;;;9.50;99.90;;;;;;5055842;28;20210;-84
2022/04/21 04:32:59;;;;;;;11.97;6.90;;;9.60;99.90;;;;;;5055710;28;20207;-84
2022/04/21 04:35:26;;;;;;;8.37;6.80;;;9.50;99.90;;;;;;5055457;28;20206;-84
2022/04/21 04:37:53;;;;;;;8.10;6.50;;;9.60;99.90;;;;;;5055451;28;20203;-83
2022/04/21 04:40:22;;;;;;;9.93;7.37;;;9.70;99.90;;;;;;5055306;28;20221;-83
2022/04/21 04:42:47;;;;;;;12.63;7.57;;;9.70;99.90;;;;;;5055650;28;20209;-86
2022/04/21 04:47:58;;;;;;;7.97;7.17;;;9.80;99.90;;;;;;5055663;28;20641;-85
2022/04/21 04:50:25;;;;;;;10.80;7.40;;;9.60;99.90;;;;;;5054863;28;20429;-86
2022/04/21 04:52:58;;;;;;;8.37;6.47;;;9.70;99.90;;;;;;5055464;28;20234;-86
2022/04/21 04:55:26;;;;;;;7.13;6.43;;;9.60;99.90;;;;;;5055616;28;20456;-86
2022/04/21 04:57:53;;;;;;;6.83;6.07;;;9.60;99.90;;;;;;5055363;28;20213;-86
2022/04/21 05:00:20;;;;;;;8.47;6.67;;;9.50;99.90;;;;;;5053815;28;20226;-85
2022/04/21 05:02:47;;;;;;;8.67;6.67;;;9.30;99.90;;;;;;5049531;28;20229;-86
2022/04/21 05:05:13;;;;;;;11.50;6.90;;;9.40;99.90;;;;;;5054467;28;20579;-87
2022/04/21 05:07:40;;;;;;;6.70;6.20;;;9.30;99.90;;;;;;5053966;28;20716;-88
2022/04/21 05:10:08;;;;;;;7.83;6.57;;;9.30;99.90;;;;;;5054793;28;20207;-86
2022/04/21 05:12:37;;;;;;;10.50;6.57;;;9.30;99.90;;;;;;5055419;28;20245;-86
2022/04/21 05:15:06;;;;;;;8.80;6.40;;;9.40;99.90;;;;;;5053793;28;20712;-87
2022/04/21 05:17:34;;;;;;;8.37;6.50;;;9.40;99.90;;;;;;5054893;28;20206;-86
2022/04/21 05:20:01;;;;;;;10.07;6.67;;;9.60;99.90;;;;;;5054927;28;20217;-86
2022/04/21 05:22:37;;;;;;;12.30;6.87;;;9.60;99.90;;;;;;5055161;28;20229;-87
2022/04/21 05:25:08;;;;;;;8.13;6.23;;;9.50;99.90;;;;;;5054726;28;20209;-87
2022/04/21 05:27:41;;;;;;;6.70;6.07;;;9.50;99.90;;;;;;5054641;28;20214;-88
2022/04/21 05:33:00;;;;;;;7.43;6.73;;;9.50;99.90;;;;;;5044249;28;20252;-86
2022/04/21 05:35:28;;;;;;;6.87;6.27;;;9.50;99.90;;;;;;5055082;28;20202;-87
2022/04/21 05:37:55;;;;;;;7.40;6.60;;;9.60;99.90;;;;;;5054576;28;20217;-87
2022/04/21 05:40:23;;;;;;;12.43;6.50;;;9.70;99.90;;;;;;5054416;28;20206;-88
2022/04/21 05:42:54;;;;;;;7.07;6.37;;;9.70;99.90;;;;;;5054228;28;20209;-87
2022/04/21 05:45:22;;;;;;;15.00;6.40;;;9.80;99.90;;;;;;5053609;28;20223;-87
2022/04/21 05:47:50;;;;;;;10.37;6.57;;;9.80;99.90;;;;;;5054409;28;20217;-87
2022/04/21 05:50:17;;;;;;;7.63;6.17;;;9.80;99.90;;;;;;5054488;28;20199;-86
2022/04/21 05:52:45;;;;;;;6.67;6.07;;;9.90;99.90;;;;;;5054240;28;20198;-86
2022/04/21 05:55:16;;;;;;;7.17;6.37;;;9.90;99.90;;;;;;5053658;28;20213;-87
2022/04/21 05:57:43;;;;;;;6.97;6.20;;;10.00;99.90;;;;;;5054480;28;20237;-86
2022/04/21 06:00:13;;;;;;;8.37;6.23;;;10.10;99.90;;;;;;5054175;28;20261;-88
2022/04/21 06:02:41;;;;;;;9.77;6.23;;;10.10;99.90;;;;;;5053734;28;20210;-87
2022/04/21 06:05:08;;;;;;;7.30;6.60;;;10.00;99.90;;;;;;5053549;28;20680;-86
2022/04/21 06:07:35;;;;;;;7.30;6.57;;;10.00;99.90;;;;;;5053231;28;20194;-86
2022/04/21 06:10:02;;;;;;;8.23;6.10;;;10.20;99.90;;;;;;5053898;28;20630;-87
2022/04/21 06:12:29;;;;;;;10.70;6.10;;;10.30;99.90;;;;;;5053578;28;20577;-87
2022/04/21 06:14:56;;;;;;;12.57;6.33;;;10.40;99.90;;;;;;5051223;28;20285;-87
2022/04/21 06:17:25;;;;;;;8.37;6.10;;;10.40;99.90;;;;;;5053576;28;20290;-86
2022/04/21 06:19:53;;;;;;;7.57;6.03;;;10.50;99.90;;;;;;5052028;28;20285;-86
2022/04/21 06:22:23;;;;;;;6.70;6.00;;;10.70;99.90;;;;;;5052955;28;20211;-88
2022/04/21 06:24:50;;;;;;;8.30;6.30;;;10.70;99.90;;;;;;5052751;28;20202;-88
2022/04/21 06:27:17;;;;;;;8.10;6.67;;;10.80;99.90;;;;;;5046370;28;20228;-87
2022/04/21 06:29:44;;;;;;;9.63;5.40;;;10.80;99.90;;;;;;5052401;28;20210;-88
2022/04/21 06:32:11;;;;;;;8.37;6.17;;;10.70;99.90;;;;;;5053880;28;20218;-89
2022/04/21 06:34:39;;;;;;;6.83;5.67;;;10.70;99.90;;;;;;5053390;28;20646;-88
2022/04/21 06:37:06;;;;;;;6.13;5.60;;;10.80;99.90;;;;;;5053469;28;20203;-88
2022/04/21 06:39:33;;;;;;;10.50;5.93;;;10.90;99.90;;;;;;5053636;28;20559;-86
2022/04/21 06:41:59;;;;;;;6.20;5.60;;;10.90;99.90;;;;;;5053384;28;20558;-87
2022/04/21 06:49:56;;;;;;;8.20;5.73;;;11.40;99.90;;;;;;5050138;28;20297;-85
2022/04/21 06:52:23;;;;;;;7.13;5.57;;;11.50;99.90;;;;;;5052782;28;20203;-86
2022/04/21 06:54:50;;;;;;;8.45;6.38;;;11.60;99.90;;;;;;5051547;28;20434;-86
2022/04/21 06:57:17;;;;;;;8.13;5.77;;;11.90;99.90;;;;;;5051752;28;20198;-86
2022/04/21 06:59:44;;;;;;;10.87;5.40;;;12.00;99.90;;;;;;5052151;28;20199;-85
2022/04/21 07:02:12;;;;;;;9.77;5.50;;;12.10;99.90;;;;;;5053418;28;20206;-87
2022/04/21 07:04:39;;;;;;;7.40;5.07;;;11.90;99.90;;;;;;5053351;28;20211;-87
2022/04/21 07:07:07;;;;;;;8.47;5.73;;;12.00;99.90;;;;;;5052004;28;20607;-87
2022/04/21 07:09:34;;;;;;;7.50;5.70;;;12.10;99.90;;;;;;5053511;28;20202;-86
2022/04/21 07:12:01;;;;;;;6.70;5.37;;;12.20;99.90;;;;;;5053386;28;20199;-85
2022/04/21 07:14:28;;;;;;;7.13;5.27;;;12.20;99.90;;;;;;5053473;28;20543;-87
2022/04/21 07:16:58;;;;;;;6.80;5.00;;;12.30;99.90;;;;;;5053141;28;20643;-87
2022/04/21 07:19:24;;;;;;;6.03;4.73;;;12.30;99.90;;;;;;5053856;28;20253;-87
2022/04/21 07:21:51;;;;;;;6.13;4.47;;;12.30;99.90;;;;;;5052600;28;20194;-87
2022/04/21 07:24:19;;;;;;;6.53;4.73;;;12.40;99.90;;;;;;5052642;28;20202;-85
2022/04/21 07:26:46;;;;;;;6.63;4.83;;;12.60;99.90;;;;;;5052605;28;20229;-85
2022/04/21 07:29:13;;;;;;;9.07;4.87;;;12.60;99.90;;;;;;5051944;28;20678;-84
2022/04/21 07:31:41;;;;;;;11.47;5.53;;;12.80;99.90;;;;;;5052567;28;20210;-85
2022/04/21 07:34:08;;;;;;;6.13;4.73;;;12.80;99.90;;;;;;5052635;28;20745;-84
2022/04/21 07:36:35;;;;;;;8.17;4.53;;;12.90;99.90;;;;;;5052413;28;20203;-84
2022/04/21 07:39:02;;;;;;;5.87;5.10;;;12.90;99.90;;;;;;5051354;28;20200;-85
2022/04/21 07:41:30;;;;;;;6.53;4.40;;;13.10;99.90;;;;;;5051772;28;20187;-86
2022/04/21 07:43:56;;;;;;;6.40;5.22;;;13.10;99.90;;;;;;5051551;28;20429;-85
2022/04/21 07:46:23;;;;;;;5.07;4.63;;;13.20;99.90;;;;;;5052140;28;20223;-85
2022/04/21 07:51:34;;;;;;;4.60;4.20;;;13.40;99.90;;;;;;5052668;28;20273;-85
2022/04/21 07:54:01;;;;;;;5.97;4.80;;;13.50;99.90;;;;;;5051930;28;20204;-85
2022/04/21 07:56:28;;;;;;;9.47;5.37;;;13.50;99.90;;;;;;5052694;28;20209;-86
2022/04/21 07:58:56;;;;;;;6.63;4.97;;;13.70;99.90;;;;;;5051835;28;20221;-85
2022/04/21 08:01:23;;;;;;;7.47;4.17;;;13.80;99.90;;;;;;5051716;28;20585;-85
2022/04/21 08:03:50;;;;;;;5.73;4.77;;;14.00;99.90;;;;;;5050868;28;20204;-84
2022/04/21 08:06:17;;;;;;;5.13;4.17;;;13.90;99.90;;;;;;5051830;28;20319;-85
2022/04/21 08:08:44;;;;;;;7.83;4.30;;;13.80;99.90;;;;;;5054558;28;20208;-83
2022/04/21 08:11:10;;;;;;;5.70;4.20;;;13.80;99.90;;;;;;5055005;28;20680;-85
2022/04/21 08:13:37;;;;;;;4.57;3.83;;;13.90;99.90;;;;;;5056537;28;20212;-88
2022/04/21 08:16:06;;;;;;;8.00;4.27;;;13.90;99.90;;;;;;5058115;28;20563;-83
2022/04/21 08:18:34;;;;;;;6.17;4.20;;;14.10;99.90;;;;;;5056063;28;20212;-84
2022/04/21 08:21:00;;;;;;;6.47;3.77;;;14.30;99.90;;;;;;5055380;28;20212;-85
2022/04/21 08:23:27;;;;;;;4.23;3.70;;;14.40;99.90;;;;;;5056499;28;20213;-85
2022/04/21 08:34:08;;;;;;;5.30;3.63;;;14.90;99.90;;;;;;5055592;28;20221;-84
2022/04/21 08:36:35;;;;;;;5.27;3.70;;;15.10;99.90;;;;;;5054165;28;20210;-84
2022/04/21 08:39:02;;;;;;;3.80;3.40;;;15.10;99.90;;;;;;5055667;28;20283;-84
2022/04/21 08:41:30;;;;;;;6.87;3.40;;;15.30;99.90;;;;;;5055664;28;20224;-84
2022/04/21 08:44:00;;;;;;;5.77;3.47;;;15.50;99.90;;;;;;5055506;28;20304;-84
2022/04/21 08:46:31;;;;;;;8.73;3.77;;;15.50;99.90;;;;;;5055591;28;20230;-84
2022/04/21 08:49:00;;;;;;;6.60;3.43;;;15.40;99.90;;;;;;5055086;28;20214;-84
2022/04/21 08:51:28;;;;;;;11.00;3.53;;;15.30;99.90;;;;;;5055135;28;20206;-84
2022/04/21 08:53:55;;;;;;;8.60;3.40;;;15.50;99.90;;;;;;5054864;28;20198;-83
2022/04/21 08:56:23;;;;;;;7.07;3.20;;;15.60;99.90;;;;;;5055099;28;20229;-84
2022/04/21 08:58:50;;;;;;;4.72;3.80;;;15.70;99.90;;;;;;5053296;28;20442;-84
2022/04/21 09:01:18;;;;;;;5.27;3.50;;;15.80;99.90;;;;;;5055169;28;20226;-84
2022/04/21 09:03:49;;;;;;;4.57;3.60;;;15.70;99.90;;;;;;5054650;28;20215;-84
2022/04/21 09:06:16;;;;;;;4.93;3.20;;;15.80;99.90;;;;;;5043839;28;20202;-83
2022/04/21 09:08:43;;;;;;;5.07;2.70;;;15.90;99.90;;;;;;5054388;28;20285;-83
2022/04/21 09:11:12;;;;;;;7.40;3.80;;;16.10;99.90;;;;;;5053851;28;20208;-84
2022/04/21 09:13:40;;;;;;;4.53;3.20;;;16.00;99.90;;;;;;5053650;28;20195;-83
2022/04/21 09:16:08;;;;;;;4.87;3.30;;;16.00;99.90;;;;;;5053084;28;20199;-82
2022/04/21 09:18:42;;;;;;;3.50;3.20;;;16.30;99.90;;;;;;5053208;28;20203;-85
2022/04/21 09:21:14;;;;;;;3.40;3.13;;;16.00;99.90;;;;;;5052505;28;20205;-84
2022/04/21 09:23:41;;;;;;;4.25;3.35;;;16.00;99.90;;;;;;5051588;28;20458;-84
2022/04/21 09:26:11;;;;;;;3.70;3.40;;;16.20;99.90;;;;;;5054158;28;20554;-84
2022/04/21 09:28:38;;;;;;;6.17;3.53;;;16.40;99.90;;;;;;5054256;28;20207;-85
2022/04/21 09:31:07;;;;;;;4.20;2.90;;;16.30;99.90;;;;;;5053870;28;20207;-85
2022/04/21 09:33:35;;;;;;;9.23;3.33;;;16.30;99.50;;;;;;5054053;28;20207;-85
2022/04/21 09:36:05;;;;;;;4.10;2.57;;;16.40;99.90;;;;;;5053913;28;20199;-85
2022/04/21 09:38:34;;;;;;;3.70;2.77;;;16.40;99.70;;;;;;5054163;28;20684;-84
2022/04/21 09:41:08;;;;;;;2.97;2.47;;;16.40;98.80;;;;;;5054191;28;20211;-84
2022/04/21 09:43:37;;;;;;;2.83;2.53;;;16.50;99.00;;;;;;5054057;28;20200;-84
2022/04/21 09:46:14;;;;;;;2.70;2.47;;;16.50;98.60;;;;;;5051088;28;20278;-84
2022/04/21 09:48:42;;;;;;;6.83;2.90;;;16.60;98.80;;;;;;5052999;28;20208;-84
2022/04/21 09:51:12;;;;;;;4.63;3.13;;;16.60;99.10;;;;;;5052933;28;20553;-84
2022/04/21 09:53:53;;;;;;;7.50;2.53;;;16.60;98.40;;;;;;5053195;28;20881;-84
2022/04/21 09:56:31;;;;;;;5.20;2.87;;;16.60;98.30;;;;;;5051975;28;20205;-83
2022/04/21 09:58:58;;;;;;;4.43;3.23;;;16.70;98.40;;;;;;5053265;28;20204;-84
2022/04/21 10:01:25;;;;;;;4.83;2.93;;;16.80;98.60;;;;;;5053636;28;20228;-85
2022/04/21 10:03:53;;;;;;;3.87;3.00;;;16.90;98.40;;;;;;5053699;28;20211;-85
2022/04/21 10:06:21;;;;;;;10.40;2.85;;;16.60;98.70;;;;;;5053548;28;20208;-86
2022/04/21 10:08:51;;;;;;;7.63;2.90;;;16.80;98.60;;;;;;5053160;28;20209;-85
2022/04/21 10:11:23;;;;;;;4.90;3.00;;;17.10;97.90;;;;;;5051567;28;20647;-86
2022/04/21 10:13:53;;;;;;;5.30;2.87;;;17.00;97.20;;;;;;5053827;28;20230;-85
2022/04/21 10:16:19;;;;;;;4.50;3.37;;;17.00;98.00;;;;;;5052887;28;20676;-85
2022/04/21 10:18:50;;;;;;;4.47;3.63;;;17.20;97.60;;;;;;5052763;28;20672;-85
2022/04/21 10:21:20;;;;;;;10.93;3.33;;;17.30;97.80;;;;;;5053172;28;20198;-84
2022/04/21 10:23:47;;;;;;;4.83;3.10;;;17.40;97.70;;;;;;5053584;28;20253;-85
2022/04/21 10:26:34;;;;;;;6.57;3.60;;;17.30;98.20;;;;;;5053599;28;20210;-85
2022/04/21 10:29:10;;;;;;;4.07;3.20;;;17.30;97.80;;;;;;5053589;28;20201;-85
2022/04/21 10:31:46;;;;;;;4.17;3.23;;;17.30;96.70;;;;;;5053749;28;20201;-86
2022/04/21 10:34:28;;;;;;;9.30;3.67;;;17.50;96.50;;;;;;5053979;28;20204;-86
2022/04/21 10:37:07;;;;;;;9.35;3.88;;;17.40;96.00;;;;;;5053406;28;20429;-85
2022/04/21 10:39:34;;;;;;;4.80;4.00;;;17.40;96.40;;;;;;5053432;28;20213;-85
2022/04/21 10:42:21;;;;;;;4.97;3.87;;;17.60;96.50;;;;;;5053415;28;20214;-85
2022/04/21 10:44:50;;;;;;;9.00;3.80;;;17.60;96.90;;;;;;5052684;28;20212;-85
2022/04/21 10:47:31;;;;;;;5.30;3.70;;;17.70;96.90;;;;;;5052997;28;20316;-85
2022/04/21 10:50:00;;;;;;;14.30;10.83;;;17.70;95.90;;;;;;5039389;28;20199;-85
2022/04/21 10:58:52;;;;;;;3.80;3.50;;;17.60;95.60;;;;;;5032808;28;20246;-85
2022/04/21 11:01:33;;;;;;;7.67;3.73;;;17.70;95.60;;;;;;5032933;28;20230;-85
2022/04/21 11:04:19;;;;;;;4.67;3.00;;;17.70;96.10;;;;;;5033274;28;20222;-84
2022/04/21 11:06:47;;;;;;;8.20;3.10;;;17.90;95.30;;;;;;5032877;28;20206;-84
2022/04/21 11:09:39;;;;;;;6.27;3.03;;;18.00;94.50;;;;;;5032843;28;20689;-85
2022/04/21 11:12:07;;;;;;;6.13;3.40;;;17.80;93.30;;;;;;5032870;28;20203;-84
2022/04/21 11:14:36;;;;;;;5.73;3.33;;;17.90;93.80;;;;;;5033180;28;20209;-86
2022/04/21 11:17:05;;;;;;;4.80;3.67;;;17.80;93.60;;;;;;5033215;28;20220;-86
2022/04/21 11:19:40;;;;;;;3.47;3.17;;;17.80;94.10;;;;;;5032371;28;20256;-83
2022/04/21 11:22:08;;;;;;;6.37;3.20;;;17.90;94.50;;;;;;5032424;28;20203;-83
2022/04/21 11:25:03;;;;;;;4.93;3.33;;;18.10;94.40;;;;;;5031932;28;20218;-85
2022/04/21 11:27:34;;;;;;;5.38;3.60;;;18.20;94.30;;;;;;5030977;28;20470;-84
2022/04/21 11:30:03;;;;;;;5.30;3.10;;;18.30;93.50;;;;;;5032037;28;20201;-85
2022/04/21 11:32:31;;;;;;;6.27;3.43;;;18.40;92.80;;;;;;5032895;28;20588;-83
2022/04/21 11:34:59;;;;;;;7.30;3.50;;;18.50;92.70;;;;;;5032540;28;20212;-84
2022/04/21 11:37:45;;;;;;;5.67;3.10;;;18.50;92.50;;;;;;5033041;28;20212;-86
2022/04/21 11:40:29;;;;;;;3.83;3.60;;;18.40;91.40;;;;;;5032548;28;20208;-84
2022/04/21 11:42:57;;;;;;;3.67;3.17;;;18.40;91.50;;;;;;5033930;28;20729;-82
2022/04/21 11:45:25;;;;;;;4.57;3.73;;;18.40;91.10;;;;;;5036353;28;20285;-83
2022/04/21 11:47:54;;;;;;;5.17;3.03;;;18.30;91.20;;;;;;5036618;28;20304;-86
2022/04/21 11:50:26;;;;;;;4.20;3.87;;;18.10;91.00;;;;;;5036444;28;20651;-85
2022/04/21 11:52:54;;;;;;;6.27;3.87;;;18.00;92.20;;;;;;5036182;28;20258;-83
2022/04/21 11:55:26;;;;;;;3.90;3.50;;;18.00;92.70;;;;;;5036185;28;20678;-83
2022/04/21 11:57:53;;;;;;;6.87;3.60;;;18.10;93.00;;;;;;5036088;28;20203;-82
2022/04/21 12:08:44;;;;;;;4.77;4.20;;;18.50;92.00;;;;;;5055293;28;20233;-87
2022/04/21 12:11:11;;;;;;;4.60;3.93;;;18.50;91.90;;;;;;5056157;28;20213;-86
2022/04/21 12:13:38;;;;;;;4.60;3.50;;;18.60;92.00;;;;;;5056302;28;20211;-86
2022/04/21 12:16:05;;;;;;;5.40;3.93;;;18.60;91.50;;;;;;5057146;28;20200;-86
2022/04/21 12:18:47;;;;;;;5.03;3.90;;;18.70;91.70;;;;;;5056877;28;20215;-82
2022/04/21 12:21:14;;;;;;;3.57;3.30;;;18.80;91.60;;;;;;5055801;28;20207;-79
2022/04/21 12:23:41;;;;;;;6.00;3.80;;;18.90;90.70;;;;;;5055595;28;20268;-80
2022/04/21 12:26:08;;;;;;;4.40;3.33;;;18.80;90.20;;;;;;5055276;28;20215;-80
2022/04/21 12:28:47;;;;;;;7.40;3.70;;;18.90;90.30;;;;;;5055245;28;20232;-80
2022/04/21 12:31:18;;;;;;;6.40;3.40;;;19.00;90.00;;;;;;5054940;28;20272;-80
2022/04/21 12:33:49;;;;;;;5.43;3.53;;;19.20;90.00;;;;;;5055519;28;20253;-80
2022/04/21 12:36:25;;;;;;;6.90;4.53;;;19.10;89.90;;;;;;5054976;28;20213;-81
2022/04/21 12:38:58;;;;;;;3.73;3.43;;;19.00;90.50;;;;;;5055255;28;20207;-81
2022/04/21 12:41:26;;;;;;;6.88;4.40;;;19.20;90.50;;;;;;5053418;28;20430;-82
2022/04/21 12:43:54;;;;;;;6.10;3.73;;;19.40;90.30;;;;;;5054705;28;20217;-82
2022/04/21 12:46:21;;;;;;;5.93;3.80;;;19.30;89.90;;;;;;5054590;28;20586;-81
2022/04/21 12:48:50;;;;;;;6.00;4.00;;;19.40;88.70;;;;;;5054564;28;20706;-80
2022/04/21 12:51:20;;;;;;;6.37;3.87;;;19.20;87.70;;;;;;5054685;28;20204;-80
2022/04/21 12:53:56;;;;;;;5.07;4.03;;;19.10;88.70;;;;;;5050889;28;20208;-83
2022/04/21 12:56:34;;;;;;;4.03;3.63;;;19.20;89.20;;;;;;5054914;28;20304;-80
2022/04/21 12:59:01;;;;;;;5.50;3.87;;;19.50;88.20;;;;;;5055715;28;20285;-82
2022/04/21 13:01:28;;;;;;;7.57;3.80;;;19.30;87.10;;;;;;5055412;28;20224;-80
2022/04/21 13:03:59;;;;;;;5.80;3.87;;;19.40;89.20;;;;;;5055066;28;20202;-81
2022/04/21 13:06:27;;;;;;;8.03;4.03;;;19.50;87.90;;;;;;5054457;28;20214;-84
2022/04/21 13:08:53;;;;;;;9.10;4.13;;;19.60;89.10;;;;;;5054800;28;20234;-80
2022/04/21 13:11:20;;;;;;;6.60;4.83;;;19.60;86.40;;;;;;5054711;28;20322;-80
2022/04/21 13:13:47;;;;;;;5.10;3.90;;;19.40;88.00;;;;;;5055082;28;20217;-81
2022/04/21 13:16:14;;;;;;;7.40;4.47;;;19.40;87.50;;;;;;5054304;28;20657;-80
2022/04/21 13:18:41;;;;;;;8.90;4.23;;;19.40;88.60;;;;;;5054173;28;20221;-79
2022/04/21 13:23:55;;;;;;;7.17;3.90;;;19.70;87.90;;;;;;5053757;28;20683;-82
2022/04/21 13:26:28;;;;;;;11.47;4.20;;;19.80;86.30;;;;;;5053707;28;20206;-80
2022/04/21 13:28:56;;;;;;;7.23;3.50;;;19.70;86.50;;;;;;5053327;28;20240;-80
2022/04/21 13:34:08;;;;;;;7.83;3.73;;;19.70;85.30;;;;;;5054524;28;20264;-83
2022/04/21 13:36:38;;;;;;;4.73;4.27;;;19.40;84.50;;;;;;5053805;28;20212;-83
2022/04/21 13:39:04;;;;;;;3.23;3.03;;;19.60;84.50;;;;;;5054084;28;20218;-84
2022/04/21 13:41:31;;;;;;;5.57;4.03;;;19.80;82.10;;;;;;5053959;28;20211;-82
2022/04/21 13:43:58;;;;;;;3.90;3.60;;;19.80;83.10;;;;;;5054205;28;20666;-83
2022/04/21 13:46:25;;;;;;;3.23;3.00;;;19.70;83.90;;;;;;5054027;28;20218;-82
2022/04/21 13:48:52;;;;;;;3.87;2.73;;;19.90;82.10;;;;;;5053959;28;20237;-83
2022/04/21 13:51:19;;;;;;;3.87;2.80;;;20.30;80.40;;;;;;5054158;28;20211;-83
2022/04/21 13:53:47;;;;;;;5.95;3.05;;;20.50;78.70;;;;;;5053107;28;20438;-84
2022/04/21 13:56:13;;;;;;;6.27;3.50;;;21.30;79.30;;;;;;5053765;28;20209;-83
2022/04/21 13:58:40;;;;;;;3.63;3.00;;;21.70;77.00;;;;;;5053725;28;20203;-86
2022/04/21 14:01:07;;;;;;;6.70;2.83;;;22.10;76.90;;;;;;5056391;28;20230;-85